createdAt,value
2023-03-22T00:02:13.040Z,98067.38
2023-03-22T00:04:39.533Z,98064.84
2023-03-22T00:07:06.009Z,98069.25
2023-03-22T00:09:32.497Z,98064.13
2023-03-22T00:11:58.971Z,98062.44
2023-03-22T00:14:25.625Z,98069.44
2023-03-22T00:16:52.118Z,98071.16
2023-03-22T00:19:18.667Z,98063.38
2023-03-22T00:21:46.262Z,98064.41
2023-03-22T00:24:13.056Z,98061.78
2023-03-22T00:26:39.659Z,98068.63
2023-03-22T00:29:06.249Z,98053.91
2023-03-22T00:31:32.812Z,98042.81
2023-03-22T00:34:00.143Z,98047.66
2023-03-22T00:36:26.607Z,98030.13
2023-03-22T00:38:53.117Z,98039.59
2023-03-22T00:41:23.179Z,98032.50
2023-03-22T00:43:51.405Z,98032.50
2023-03-22T00:46:20.552Z,98036.31
2023-03-22T00:48:48.069Z,98037.19
2023-03-22T00:51:16.297Z,98031.47
2023-03-22T00:53:43.805Z,98032.59
2023-03-22T00:56:13.960Z,98033.44
2023-03-22T00:58:40.943Z,98037.94
2023-03-22T01:01:08.186Z,98035.41
2023-03-22T01:03:35.044Z,98027.81
2023-03-22T01:06:01.774Z,98027.91
2023-03-22T01:08:32.997Z,98031.34
2023-03-22T01:11:01.173Z,98025.28
2023-03-22T01:13:28.929Z,98025.47
2023-03-22T01:15:55.830Z,98025.16
2023-03-22T01:18:22.364Z,98016.28
2023-03-22T01:20:48.859Z,98019.75
2023-03-22T01:23:15.870Z,98014.88
2023-03-22T01:25:42.532Z,98010.13
2023-03-22T01:28:09.690Z,98005.84
2023-03-22T01:30:36.842Z,97997.63
2023-03-22T01:33:03.455Z,97994.16
2023-03-22T01:35:30.666Z,97991.66
2023-03-22T01:37:57.155Z,97990.78
2023-03-22T01:40:25.997Z,97982.66
2023-03-22T01:42:56.353Z,97976.97
2023-03-22T01:45:22.689Z,97975.72
2023-03-22T01:47:56.992Z,97978.34
2023-03-22T01:50:25.824Z,97968.63
2023-03-22T01:52:57.017Z,97974.69
2023-03-22T01:55:26.036Z,97972.44
2023-03-22T01:57:54.671Z,97971.81
2023-03-22T02:00:22.354Z,97972.38
2023-03-22T02:02:52.374Z,97966.41
2023-03-22T02:05:22.138Z,97967.56
2023-03-22T02:07:50.117Z,97967.63
2023-03-22T02:10:23.387Z,97960.06
2023-03-22T02:13:26.696Z,97961.38
2023-03-22T02:16:23.085Z,97958.50
2023-03-22T02:19:05.738Z,97954.38
2023-03-22T02:21:50.692Z,97952.59
2023-03-22T02:24:50.881Z,97951.47
2023-03-22T02:27:42.052Z,97961.75
2023-03-22T02:30:58.728Z,97960.28
2023-03-22T02:34:15.568Z,97959.88
2023-03-22T02:37:27.089Z,97953.38
2023-03-22T02:40:07.159Z,97951.59
2023-03-22T02:43:10.764Z,97945.31
2023-03-22T02:46:18.333Z,97943.75
2023-03-22T02:49:03.741Z,97946.06
2023-03-22T02:51:57.320Z,97932.97
2023-03-22T02:54:39.777Z,97945.88
2023-03-22T02:57:31.367Z,97935.22
2023-03-22T03:00:01.263Z,97927.38
2023-03-22T03:02:30.682Z,97921.09
2023-03-22T03:04:58.547Z,97924.00
2023-03-22T03:07:28.774Z,97923.63
2023-03-22T03:09:56.468Z,97928.50
2023-03-22T03:12:28.064Z,97921.19
2023-03-22T03:14:54.746Z,97921.88
2023-03-22T03:17:35.450Z,97912.69
2023-03-22T03:20:30.019Z,97910.66
2023-03-22T03:23:32.318Z,97917.06
2023-03-22T03:26:35.695Z,97913.50
2023-03-22T03:29:10.186Z,97914.88
2023-03-22T03:32:06.568Z,97912.06
2023-03-22T03:34:49.457Z,97918.38
2023-03-22T03:37:28.211Z,97909.16
2023-03-22T03:40:05.171Z,97900.88
2023-03-22T03:42:32.511Z,97896.50
2023-03-22T03:45:00.234Z,97899.69
2023-03-22T03:47:29.298Z,97892.59
2023-03-22T03:49:56.271Z,97891.69
2023-03-22T03:52:24.447Z,97894.22
2023-03-22T03:54:51.229Z,97895.50
2023-03-22T03:57:17.894Z,97890.09
2023-03-22T03:59:44.382Z,97889.81
2023-03-22T04:02:10.917Z,97889.63
2023-03-22T04:04:38.333Z,97882.72
2023-03-22T04:07:07.058Z,97885.63
2023-03-22T04:09:37.293Z,97887.84
2023-03-22T04:12:04.140Z,97883.38
2023-03-22T04:14:30.689Z,97886.84
2023-03-22T04:16:57.324Z,97891.34
2023-03-22T04:19:23.968Z,97886.66
2023-03-22T04:21:53.094Z,97891.59
2023-03-22T04:24:21.806Z,97894.78
2023-03-22T04:26:48.842Z,97899.91
2023-03-22T04:29:16.031Z,97894.56
2023-03-22T04:31:42.519Z,97898.06
2023-03-22T04:34:09.000Z,97894.69
2023-03-22T04:36:39.303Z,97891.50
2023-03-22T04:39:10.381Z,97894.66
2023-03-22T04:41:37.535Z,97889.22
2023-03-22T04:44:05.909Z,97895.28
2023-03-22T04:46:36.586Z,97896.63
2023-03-22T04:49:06.581Z,97896.81
2023-03-22T04:51:33.074Z,97889.53
2023-03-22T04:54:00.338Z,97893.94
2023-03-22T04:56:26.980Z,97891.50
2023-03-22T04:58:53.459Z,97889.09
2023-03-22T05:01:19.996Z,97901.41
2023-03-22T05:03:47.399Z,97887.78
2023-03-22T05:06:15.704Z,97886.56
2023-03-22T05:08:42.747Z,97878.91
2023-03-22T05:11:17.004Z,97885.88
2023-03-22T05:13:43.499Z,97880.16
2023-03-22T05:16:11.101Z,97876.59
2023-03-22T05:18:42.251Z,97880.75
2023-03-22T05:21:15.529Z,97874.28
2023-03-22T05:23:43.906Z,97875.22
2023-03-22T05:26:16.000Z,97880.72
2023-03-22T05:28:44.177Z,97882.22
2023-03-22T05:31:11.671Z,97875.22
2023-03-22T05:33:38.288Z,97869.63
2023-03-22T05:36:05.343Z,97866.09
2023-03-22T05:38:31.817Z,97872.69
2023-03-22T05:40:58.280Z,97878.31
2023-03-22T05:43:24.769Z,97886.06
2023-03-22T05:45:51.337Z,97888.72
2023-03-22T05:48:18.043Z,97877.22
2023-03-22T05:50:44.556Z,97876.38
2023-03-22T05:53:11.818Z,97874.78
2023-03-22T05:55:38.643Z,97872.63
2023-03-22T05:58:05.396Z,97875.25
2023-03-22T06:00:32.241Z,97876.34
2023-03-22T06:03:03.463Z,97883.81
2023-03-22T06:05:31.776Z,97885.09
2023-03-22T06:07:59.710Z,97882.00
2023-03-22T06:10:28.029Z,97876.66
2023-03-22T06:12:54.785Z,97872.13
2023-03-22T06:15:21.777Z,97872.53
2023-03-22T06:17:48.341Z,97870.66
2023-03-22T06:20:15.509Z,97869.88
2023-03-22T06:22:42.730Z,97878.59
2023-03-22T06:25:10.856Z,97878.50
2023-03-22T06:27:37.628Z,97875.06
2023-03-22T06:30:05.327Z,97868.03
2023-03-22T06:32:31.784Z,97864.38
2023-03-22T06:34:58.325Z,97861.94
2023-03-22T06:37:25.505Z,97861.75
2023-03-22T06:39:52.220Z,97867.94
2023-03-22T06:42:19.130Z,97871.06
2023-03-22T06:44:45.670Z,97881.66
2023-03-22T06:47:12.620Z,97879.84
2023-03-22T06:49:39.726Z,97870.69
2023-03-22T06:52:06.551Z,97869.81
2023-03-22T06:54:33.268Z,97855.59
2023-03-22T06:56:59.931Z,97862.34
2023-03-22T06:59:26.637Z,97867.25
2023-03-22T07:01:53.168Z,97865.78
2023-03-22T07:04:20.043Z,97868.94
2023-03-22T07:06:46.920Z,97866.72
2023-03-22T07:09:13.414Z,97872.88
2023-03-22T07:11:40.093Z,97864.78
2023-03-22T07:14:06.683Z,97864.59
2023-03-22T07:16:33.221Z,97861.00
2023-03-22T07:18:59.761Z,97863.63
2023-03-22T07:21:26.599Z,97860.28
2023-03-22T07:23:53.355Z,97860.03
2023-03-22T07:26:19.825Z,97865.78
2023-03-22T07:28:46.360Z,97859.00
2023-03-22T07:31:14.385Z,97864.72
2023-03-22T07:33:41.228Z,97860.19
2023-03-22T07:36:08.853Z,97849.63
2023-03-22T07:38:36.126Z,97844.50
2023-03-22T07:41:02.601Z,97849.84
2023-03-22T07:43:29.189Z,97850.06
2023-03-22T07:45:55.758Z,97844.31
2023-03-22T07:48:23.601Z,97856.41
2023-03-22T07:50:54.159Z,97845.34
2023-03-22T07:53:20.767Z,97843.31
2023-03-22T07:55:48.041Z,97844.34
2023-03-22T07:58:14.918Z,97835.34
2023-03-22T08:00:41.770Z,97841.22
2023-03-22T08:03:13.239Z,97834.00
2023-03-22T08:05:42.818Z,97834.19
2023-03-22T08:08:10.038Z,97829.63
2023-03-22T08:10:36.801Z,97826.28
2023-03-22T08:13:03.389Z,97820.50
2023-03-22T08:15:29.989Z,97816.91
2023-03-22T08:17:58.003Z,97823.59
2023-03-22T08:20:27.490Z,97806.09
2023-03-22T08:22:54.854Z,97809.75
2023-03-22T08:25:22.194Z,97812.31
2023-03-22T08:27:48.705Z,97811.34
2023-03-22T08:30:15.465Z,97802.16
2023-03-22T08:32:42.065Z,97808.47
2023-03-22T08:35:09.574Z,97806.66
2023-03-22T08:37:36.174Z,97802.78
2023-03-22T08:40:04.928Z,97809.41
2023-03-22T08:42:31.505Z,97803.16
2023-03-22T08:44:57.956Z,97800.00
2023-03-22T08:47:24.474Z,97796.63
2023-03-22T08:49:51.056Z,97797.22
2023-03-22T08:52:17.531Z,97801.66
2023-03-22T08:54:44.073Z,97809.06
2023-03-22T08:57:10.910Z,97802.53
2023-03-22T08:59:37.428Z,97803.22
2023-03-22T09:02:04.121Z,97798.44
2023-03-22T09:04:30.875Z,97795.91
2023-03-22T09:06:57.374Z,97788.16
2023-03-22T09:09:23.874Z,97791.78
2023-03-22T09:11:50.506Z,97795.81
2023-03-22T09:14:17.093Z,97785.25
2023-03-22T09:16:43.694Z,97786.09
2023-03-22T09:19:10.386Z,97799.03
2023-03-22T09:21:37.610Z,97785.41
2023-03-22T09:24:04.392Z,97776.97
2023-03-22T09:26:31.006Z,97780.19
2023-03-22T09:28:57.505Z,97777.81
2023-03-22T09:31:24.115Z,97777.69
2023-03-22T09:33:50.601Z,97777.94
2023-03-22T09:36:17.243Z,97780.97
2023-03-22T09:38:43.768Z,97777.13
2023-03-22T09:41:20.724Z,97783.09
2023-03-22T09:44:00.938Z,97776.28
2023-03-22T09:46:35.884Z,97775.34
2023-03-22T09:49:12.626Z,97772.44
2023-03-22T09:51:52.250Z,97778.84
2023-03-22T09:54:24.957Z,97773.53
2023-03-22T09:57:04.888Z,97779.25
2023-03-22T09:59:39.913Z,97777.16
2023-03-22T10:02:43.038Z,97767.41
2023-03-22T10:05:17.846Z,97773.28
2023-03-22T10:08:06.385Z,97778.56
2023-03-22T10:10:33.015Z,97777.19
2023-03-22T10:13:10.459Z,97774.94
2023-03-22T10:15:43.145Z,97776.03
2023-03-22T10:18:20.093Z,97760.88
2023-03-22T10:20:59.130Z,97770.88
2023-03-22T10:24:16.840Z,97758.78
2023-03-22T10:26:47.720Z,97751.22
2023-03-22T10:29:39.903Z,97747.47
2023-03-22T10:32:16.561Z,97737.38
2023-03-22T10:34:44.062Z,97726.63
2023-03-22T10:37:23.121Z,97730.66
2023-03-22T10:39:55.197Z,97727.53
2023-03-22T10:42:30.012Z,97716.41
2023-03-22T10:45:14.117Z,97716.41
2023-03-22T10:47:57.753Z,97719.47
2023-03-22T10:50:34.304Z,97716.97
2023-03-22T10:53:18.537Z,97720.84
2023-03-22T10:55:45.288Z,97722.47
2023-03-22T10:58:17.250Z,97720.75
2023-03-22T11:00:50.425Z,97727.44
2023-03-22T11:03:29.967Z,97717.50
2023-03-22T11:06:07.060Z,97727.59
2023-03-22T11:08:48.447Z,97735.53
2023-03-22T11:11:23.424Z,97735.47
2023-03-22T11:13:55.764Z,97749.78
2023-03-22T11:16:23.709Z,97746.63
2023-03-22T11:18:50.658Z,97745.28
2023-03-22T11:21:21.314Z,97747.09
2023-03-22T11:24:02.557Z,97757.28
2023-03-22T11:26:40.522Z,97753.69
2023-03-22T11:29:16.969Z,97758.78
2023-03-22T11:31:59.609Z,97762.19
2023-03-22T11:34:30.832Z,97751.19
2023-03-22T11:37:01.073Z,97752.19
2023-03-22T11:39:29.573Z,97753.88
2023-03-22T11:42:03.827Z,97753.88
2023-03-22T11:44:37.822Z,97738.56
2023-03-22T11:47:08.124Z,97745.00
2023-03-22T11:49:47.358Z,97747.88
2023-03-22T11:52:23.024Z,97737.50
2023-03-22T11:54:51.772Z,97747.88
2023-03-22T11:57:26.418Z,97746.44
2023-03-22T12:00:02.486Z,97745.75
2023-03-22T12:02:41.749Z,97747.41
2023-03-22T12:05:20.955Z,97736.81
2023-03-22T12:07:58.805Z,97745.13
2023-03-22T12:10:38.499Z,97742.41
2023-03-22T12:13:19.104Z,97728.09
2023-03-22T12:15:54.812Z,97731.44
2023-03-22T12:18:41.406Z,97728.50
2023-03-22T12:21:13.587Z,97714.13
2023-03-22T12:23:40.209Z,97725.75
2023-03-22T12:26:11.541Z,97716.81
2023-03-22T12:29:06.394Z,97730.88
2023-03-22T12:31:40.489Z,97728.28
2023-03-22T12:34:17.037Z,97730.94
2023-03-22T12:36:56.069Z,97719.09
2023-03-22T12:39:37.688Z,97710.31
2023-03-22T12:42:26.388Z,97704.88
2023-03-22T12:45:05.708Z,97706.69
2023-03-22T12:47:42.504Z,97703.63
2023-03-22T12:50:17.004Z,97711.91
2023-03-22T12:52:50.209Z,97710.56
2023-03-22T12:55:38.172Z,97698.50
2023-03-22T12:58:10.381Z,97709.22
2023-03-22T13:00:46.751Z,97705.41
2023-03-22T13:03:16.206Z,97711.44
2023-03-22T13:05:46.556Z,97715.94
2023-03-22T13:08:13.491Z,97706.97
2023-03-22T13:11:08.400Z,97699.38
2023-03-22T13:13:44.692Z,97697.59
2023-03-22T13:16:11.435Z,97700.59
2023-03-22T13:18:38.129Z,97699.81
2023-03-22T13:21:22.611Z,97695.03
2023-03-22T13:24:13.388Z,97703.69
2023-03-22T13:26:47.809Z,97706.59
2023-03-22T13:29:24.452Z,97692.28
2023-03-22T13:31:51.023Z,97710.38
2023-03-22T13:34:31.893Z,97710.03
2023-03-22T13:37:01.508Z,97714.34
2023-03-22T13:39:34.552Z,97703.25
2023-03-22T13:42:19.913Z,97710.03
2023-03-22T13:44:58.485Z,97711.81
2023-03-22T13:47:47.012Z,97713.94
2023-03-22T13:50:27.422Z,97721.44
2023-03-22T13:53:07.560Z,97720.63
2023-03-22T13:55:46.320Z,97720.75
2023-03-22T13:58:36.450Z,97730.56
2023-03-22T14:01:34.984Z,97727.59
2023-03-22T14:04:10.554Z,97728.53
2023-03-22T14:06:59.983Z,97718.56
2023-03-22T14:09:52.840Z,97727.41
2023-03-22T14:12:31.002Z,97701.91
2023-03-22T14:15:03.488Z,97715.88
2023-03-22T14:17:55.695Z,97724.09
2023-03-22T14:20:27.002Z,97728.09
